sensor_id;sensor_type;location;lat;lon;timestamp;pressure;altitude;pressure_sealevel;temperature;humidity
39209;BME280;24929;51.982;4.664;2022-10-17T00:00:32;77121.72;;;-143.36;nan
39209;BME280;24929;51.982;4.664;2022-10-17T00:02:57;77115.69;;;-143.36;nan
39209;BME280;24929;51.982;4.664;2022-10-17T00:05:23;77121.72;;;-143.36;nan
39209;BME280;24929;51.982;4.664;2022-10-17T00:07:49;77111.69;;;-143.36;nan
39209;BME280;24929;51.982;4.664;2022-10-17T00:10:14;77117.72;;;-143.36;nan
39209;BME280;24929;51.982;4.664;2022-10-17T00:12:40;77103.66;;;-143.36;nan
39209;BME280;24929;51.982;4.664;2022-10-17T00:15:06;77095.63;;;-143.36;nan
39209;BME280;24929;51.982;4.664;2022-10-17T00:17:32;77093.63;;;-143.36;nan
39209;BME280;24929;51.982;4.664;2022-10-17T00:19:59;77097.63;;;-143.36;nan
39209;BME280;24929;51.982;4.664;2022-10-17T00:22:25;77103.66;;;-143.36;nan
39209;BME280;24929;51.982;4.664;2022-10-17T00:24:50;77103.66;;;-143.36;nan
39209;BME280;24929;51.982;4.664;2022-10-17T00:27:16;77107.66;;;-143.36;nan
39209;BME280;24929;51.982;4.664;2022-10-17T00:29:41;77099.66;;;-143.36;nan
39209;BME280;24929;51.982;4.664;2022-10-17T00:32:06;77105.66;;;-143.36;nan
39209;BME280;24929;51.982;4.664;2022-10-17T00:34:32;77101.66;;;-143.36;nan
39209;BME280;24929;51.982;4.664;2022-10-17T00:36:57;77109.69;;;-143.36;nan
39209;BME280;24929;51.982;4.664;2022-10-17T00:39:23;77105.66;;;-143.36;nan
39209;BME280;24929;51.982;4.664;2022-10-17T00:41:48;77099.66;;;-143.36;nan
39209;BME280;24929;51.982;4.664;2022-10-17T00:46:58;77073.56;;;-143.36;nan
39209;BME280;24929;51.982;4.664;2022-10-17T00:49:27;77079.56;;;-143.36;nan
39209;BME280;24929;51.982;4.664;2022-10-17T00:52:15;77057.50;;;-143.36;nan
39209;BME280;24929;51.982;4.664;2022-10-17T00:54:48;77061.50;;;-143.36;nan
39209;BME280;24929;51.982;4.664;2022-10-17T00:57:15;77073.56;;;-143.36;nan
39209;BME280;24929;51.982;4.664;2022-10-17T00:59:42;77091.63;;;-143.36;nan
39209;BME280;24929;51.982;4.664;2022-10-17T01:02:12;77083.59;;;-143.36;nan
39209;BME280;24929;51.982;4.664;2022-10-17T01:04:41;77075.56;;;-143.36;nan
39209;BME280;24929;51.982;4.664;2022-10-17T01:07:07;77095.63;;;-143.36;nan
39209;BME280;24929;51.982;4.664;2022-10-17T01:09:33;77099.66;;;-143.36;nan
39209;BME280;24929;51.982;4.664;2022-10-17T01:12:14;77077.56;;;-143.36;nan
39209;BME280;24929;51.982;4.664;2022-10-17T01:15:11;77059.50;;;-143.36;nan
39209;BME280;24929;51.982;4.664;2022-10-17T01:34:46;77055.50;;;-143.36;nan
39209;BME280;24929;51.982;4.664;2022-10-17T01:37:29;77025.38;;;-143.36;nan
39209;BME280;24929;51.982;4.664;2022-10-17T01:40:02;77059.50;;;-143.36;nan
39209;BME280;24929;51.982;4.664;2022-10-17T01:42:45;77023.38;;;-143.36;nan
39209;BME280;24929;51.982;4.664;2022-10-17T01:48:47;77041.44;;;-143.36;nan
39209;BME280;24929;51.982;4.664;2022-10-17T01:51:20;77023.38;;;-143.36;nan
39209;BME280;24929;51.982;4.664;2022-10-17T01:56:25;77027.38;;;-143.36;nan
39209;BME280;24929;51.982;4.664;2022-10-17T01:58:57;77027.38;;;-143.36;nan
39209;BME280;24929;51.982;4.664;2022-10-17T02:01:25;77027.38;;;-143.36;nan
39209;BME280;24929;51.982;4.664;2022-10-17T02:03:52;77047.47;;;-143.36;nan
39209;BME280;24929;51.982;4.664;2022-10-17T02:06:19;77041.44;;;-143.36;nan
39209;BME280;24929;51.982;4.664;2022-10-17T02:08:47;77023.38;;;-143.36;nan
39209;BME280;24929;51.982;4.664;2022-10-17T02:11:23;77015.34;;;-143.36;nan
39209;BME280;24929;51.982;4.664;2022-10-17T02:14:10;76991.25;;;-143.36;nan
39209;BME280;24929;51.982;4.664;2022-10-17T02:16:49;76983.25;;;-143.36;nan
39209;BME280;24929;51.982;4.664;2022-10-17T02:22:34;76955.13;;;-143.36;nan
39209;BME280;24929;51.982;4.664;2022-10-17T02:28:10;76939.09;;;-143.36;nan
39209;BME280;24929;51.982;4.664;2022-10-17T02:30:53;76949.13;;;-143.36;nan
39209;BME280;24929;51.982;4.664;2022-10-17T02:33:24;76935.06;;;-143.36;nan
39209;BME280;24929;51.982;4.664;2022-10-17T02:35:53;76951.13;;;-143.36;nan
39209;BME280;24929;51.982;4.664;2022-10-17T02:38:24;76949.13;;;-143.36;nan
39209;BME280;24929;51.982;4.664;2022-10-17T02:40:52;76955.13;;;-143.36;nan
39209;BME280;24929;51.982;4.664;2022-10-17T02:43:18;76967.19;;;-143.36;nan
39209;BME280;24929;51.982;4.664;2022-10-17T02:45:45;76955.13;;;-143.36;nan
39209;BME280;24929;51.982;4.664;2022-10-17T02:48:18;76943.09;;;-143.36;nan
39209;BME280;24929;51.982;4.664;2022-10-17T02:53:54;76957.16;;;-143.36;nan
39209;BME280;24929;51.982;4.664;2022-10-17T02:56:23;76951.13;;;-143.36;nan
39209;BME280;24929;51.982;4.664;2022-10-17T02:58:53;76957.16;;;-143.36;nan
39209;BME280;24929;51.982;4.664;2022-10-17T03:01:19;76961.16;;;-143.36;nan
39209;BME280;24929;51.982;4.664;2022-10-17T03:03:45;76961.16;;;-143.36;nan
39209;BME280;24929;51.982;4.664;2022-10-17T03:06:11;76959.16;;;-143.36;nan
39209;BME280;24929;51.982;4.664;2022-10-17T03:08:36;76953.13;;;-143.36;nan
39209;BME280;24929;51.982;4.664;2022-10-17T03:11:02;76955.13;;;-143.36;nan
39209;BME280;24929;51.982;4.664;2022-10-17T03:13:28;76945.09;;;-143.36;nan
39209;BME280;24929;51.982;4.664;2022-10-17T03:15:57;76939.09;;;-143.36;nan
39209;BME280;24929;51.982;4.664;2022-10-17T03:18:22;76947.13;;;-143.36;nan
39209;BME280;24929;51.982;4.664;2022-10-17T03:20:47;76921.03;;;-143.36;nan
39209;BME280;24929;51.982;4.664;2022-10-17T03:23:13;76931.06;;;-143.36;nan
39209;BME280;24929;51.982;4.664;2022-10-17T03:25:38;76929.06;;;-143.36;nan
39209;BME280;24929;51.982;4.664;2022-10-17T03:28:03;76927.03;;;-143.36;nan
39209;BME280;24929;51.982;4.664;2022-10-17T03:30:29;76931.06;;;-143.36;nan
39209;BME280;24929;51.982;4.664;2022-10-17T03:32:57;76908.97;;;-143.36;nan
39209;BME280;24929;51.982;4.664;2022-10-17T03:35:22;76913.00;;;-143.36;nan
39209;BME280;24929;51.982;4.664;2022-10-17T03:37:48;76921.03;;;-143.36;nan
39209;BME280;24929;51.982;4.664;2022-10-17T03:40:13;76902.97;;;-143.36;nan
39209;BME280;24929;51.982;4.664;2022-10-17T03:42:38;76896.94;;;-143.36;nan
39209;BME280;24929;51.982;4.664;2022-10-17T03:45:04;76911.00;;;-143.36;nan
39209;BME280;24929;51.982;4.664;2022-10-17T03:47:30;76900.97;;;-143.36;nan
39209;BME280;24929;51.982;4.664;2022-10-17T03:49:55;76908.97;;;-143.36;nan
39209;BME280;24929;51.982;4.664;2022-10-17T03:52:20;76898.94;;;-143.36;nan
39209;BME280;24929;51.982;4.664;2022-10-17T03:54:46;76900.97;;;-143.36;nan
39209;BME280;24929;51.982;4.664;2022-10-17T03:57:11;76892.94;;;-143.36;nan
39209;BME280;24929;51.982;4.664;2022-10-17T03:59:37;76911.00;;;-143.36;nan
39209;BME280;24929;51.982;4.664;2022-10-17T04:02:02;76904.97;;;-143.36;nan
39209;BME280;24929;51.982;4.664;2022-10-17T04:04:28;76917.00;;;-143.36;nan
39209;BME280;24929;51.982;4.664;2022-10-17T04:06:53;76921.03;;;-143.36;nan
39209;BME280;24929;51.982;4.664;2022-10-17T04:09:19;76917.00;;;-143.36;nan
39209;BME280;24929;51.982;4.664;2022-10-17T04:11:44;76904.97;;;-143.36;nan
39209;BME280;24929;51.982;4.664;2022-10-17T04:14:09;76906.97;;;-143.36;nan
39209;BME280;24929;51.982;4.664;2022-10-17T04:16:35;76919.00;;;-143.36;nan
39209;BME280;24929;51.982;4.664;2022-10-17T04:19:00;76915.00;;;-143.36;nan
39209;BME280;24929;51.982;4.664;2022-10-17T04:21:27;76898.94;;;-143.36;nan
39209;BME280;24929;51.982;4.664;2022-10-17T04:23:57;76884.91;;;-143.36;nan
39209;BME280;24929;51.982;4.664;2022-10-17T04:26:23;76902.97;;;-143.36;nan
39209;BME280;24929;51.982;4.664;2022-10-17T04:28:49;76888.91;;;-143.36;nan
39209;BME280;24929;51.982;4.664;2022-10-17T04:31:14;76892.94;;;-143.36;nan
39209;BME280;24929;51.982;4.664;2022-10-17T04:33:40;76894.94;;;-143.36;nan
39209;BME280;24929;51.982;4.664;2022-10-17T04:36:10;76884.91;;;-143.36;nan
39209;BME280;24929;51.982;4.664;2022-10-17T04:38:36;76892.94;;;-143.36;nan
39209;BME280;24929;51.982;4.664;2022-10-17T04:41:04;76880.88;;;-143.36;nan
39209;BME280;24929;51.982;4.664;2022-10-17T04:43:31;76888.91;;;-143.36;nan
39209;BME280;24929;51.982;4.664;2022-10-17T04:45:58;76900.97;;;-143.36;nan
39209;BME280;24929;51.982;4.664;2022-10-17T04:48:23;76908.97;;;-143.36;nan
39209;BME280;24929;51.982;4.664;2022-10-17T04:50:56;76890.91;;;-143.36;nan
39209;BME280;24929;51.982;4.664;2022-10-17T04:53:22;76900.97;;;-143.36;nan
39209;BME280;24929;51.982;4.664;2022-10-17T04:55:47;76923.03;;;-143.36;nan
39209;BME280;24929;51.982;4.664;2022-10-17T04:58:13;76913.00;;;-143.36;nan
39209;BME280;24929;51.982;4.664;2022-10-17T05:00:38;76913.00;;;-143.36;nan
39209;BME280;24929;51.982;4.664;2022-10-17T05:03:03;76921.03;;;-143.36;nan
39209;BME280;24929;51.982;4.664;2022-10-17T05:05:29;76904.97;;;-143.36;nan
39209;BME280;24929;51.982;4.664;2022-10-17T05:07:55;76902.97;;;-143.36;nan
39209;BME280;24929;51.982;4.664;2022-10-17T05:10:20;76892.94;;;-143.36;nan
39209;BME280;24929;51.982;4.664;2022-10-17T05:12:47;76898.94;;;-143.36;nan
39209;BME280;24929;51.982;4.664;2022-10-17T05:15:12;76917.00;;;-143.36;nan
39209;BME280;24929;51.982;4.664;2022-10-17T05:17:38;76915.00;;;-143.36;nan
39209;BME280;24929;51.982;4.664;2022-10-17T05:20:03;76913.00;;;-143.36;nan
39209;BME280;24929;51.982;4.664;2022-10-17T05:22:29;76921.03;;;-143.36;nan
39209;BME280;24929;51.982;4.664;2022-10-17T05:24:54;76913.00;;;-143.36;nan
39209;BME280;24929;51.982;4.664;2022-10-17T05:27:20;76915.00;;;-143.36;nan
39209;BME280;24929;51.982;4.664;2022-10-17T05:29:45;76917.00;;;-143.36;nan
39209;BME280;24929;51.982;4.664;2022-10-17T05:38:16;76925.03;;;-143.36;nan
39209;BME280;24929;51.982;4.664;2022-10-17T05:40:41;76921.03;;;-143.36;nan
39209;BME280;24929;51.982;4.664;2022-10-17T05:43:06;76925.03;;;-143.36;nan
39209;BME280;24929;51.982;4.664;2022-10-17T05:45:32;76917.00;;;-143.36;nan
39209;BME280;24929;51.982;4.664;2022-10-17T05:47:57;76923.03;;;-143.36;nan
39209;BME280;24929;51.982;4.664;2022-10-17T05:50:23;76927.03;;;-143.36;nan
39209;BME280;24929;51.982;4.664;2022-10-17T05:52:52;76906.97;;;-143.36;nan
39209;BME280;24929;51.982;4.664;2022-10-17T05:55:18;76929.06;;;-143.36;nan
39209;BME280;24929;51.982;4.664;2022-10-17T05:57:43;76913.00;;;-143.36;nan
39209;BME280;24929;51.982;4.664;2022-10-17T06:00:09;76908.97;;;-143.36;nan
39209;BME280;24929;51.982;4.664;2022-10-17T06:02:34;76915.00;;;-143.36;nan
39209;BME280;24929;51.982;4.664;2022-10-17T06:04:59;76911.00;;;-143.36;nan
39209;BME280;24929;51.982;4.664;2022-10-17T06:07:25;76906.97;;;-143.36;nan
39209;BME280;24929;51.982;4.664;2022-10-17T06:09:50;76906.97;;;-143.36;nan
39209;BME280;24929;51.982;4.664;2022-10-17T06:12:15;76911.00;;;-143.36;nan
39209;BME280;24929;51.982;4.664;2022-10-17T06:14:41;76913.00;;;-143.36;nan
39209;BME280;24929;51.982;4.664;2022-10-17T06:17:06;76908.97;;;-143.36;nan
39209;BME280;24929;51.982;4.664;2022-10-17T06:19:31;76915.00;;;-143.36;nan
39209;BME280;24929;51.982;4.664;2022-10-17T06:21:57;76911.00;;;-143.36;nan
39209;BME280;24929;51.982;4.664;2022-10-17T06:24:22;76917.00;;;-143.36;nan
39209;BME280;24929;51.982;4.664;2022-10-17T06:26:47;76900.97;;;-143.36;nan
39209;BME280;24929;51.982;4.664;2022-10-17T06:29:14;76902.97;;;-143.36;nan
39209;BME280;24929;51.982;4.664;2022-10-17T06:31:39;76902.97;;;-143.36;nan
39209;BME280;24929;51.982;4.664;2022-10-17T06:34:04;76896.94;;;-143.36;nan
39209;BME280;24929;51.982;4.664;2022-10-17T06:36:30;76888.91;;;-143.36;nan
39209;BME280;24929;51.982;4.664;2022-10-17T06:38:55;76890.91;;;-143.36;nan
39209;BME280;24929;51.982;4.664;2022-10-17T06:41:21;76898.94;;;-143.36;nan
39209;BME280;24929;51.982;4.664;2022-10-17T06:43:46;76898.94;;;-143.36;nan
39209;BME280;24929;51.982;4.664;2022-10-17T06:46:16;76888.91;;;-143.36;nan
39209;BME280;24929;51.982;4.664;2022-10-17T06:48:42;76898.94;;;-143.36;nan
39209;BME280;24929;51.982;4.664;2022-10-17T06:51:07;76888.91;;;-143.36;nan
39209;BME280;24929;51.982;4.664;2022-10-17T06:53:36;76898.94;;;-143.36;nan
39209;BME280;24929;51.982;4.664;2022-10-17T06:56:02;76911.00;;;-143.36;nan
39209;BME280;24929;51.982;4.664;2022-10-17T07:02:26;76856.81;;;-143.36;nan
39209;BME280;24929;51.982;4.664;2022-10-17T07:04:51;76888.91;;;-143.36;nan
39209;BME280;24929;51.982;4.664;2022-10-17T07:07:17;76896.94;;;-143.36;nan
39209;BME280;24929;51.982;4.664;2022-10-17T07:09:42;76911.00;;;-143.36;nan
39209;BME280;24929;51.982;4.664;2022-10-17T07:12:07;76925.03;;;-143.36;nan
39209;BME280;24929;51.982;4.664;2022-10-17T07:14:34;76911.00;;;-143.36;nan
39209;BME280;24929;51.982;4.664;2022-10-17T07:17:00;76896.94;;;-143.36;nan
39209;BME280;24929;51.982;4.664;2022-10-17T07:19:25;76908.97;;;-143.36;nan
39209;BME280;24929;51.982;4.664;2022-10-17T07:21:52;76921.03;;;-143.36;nan
39209;BME280;24929;51.982;4.664;2022-10-17T07:24:17;76941.09;;;-143.36;nan
39209;BME280;24929;51.982;4.664;2022-10-17T07:26:43;76947.13;;;-143.36;nan
39209;BME280;24929;51.982;4.664;2022-10-17T07:29:08;76951.13;;;-143.36;nan
39209;BME280;24929;51.982;4.664;2022-10-17T07:31:34;76951.13;;;-143.36;nan
39209;BME280;24929;51.982;4.664;2022-10-17T07:33:59;76961.16;;;-143.36;nan
39209;BME280;24929;51.982;4.664;2022-10-17T07:36:24;76953.13;;;-143.36;nan
39209;BME280;24929;51.982;4.664;2022-10-17T07:38:50;76951.13;;;-143.36;nan
39209;BME280;24929;51.982;4.664;2022-10-17T07:41:15;76951.13;;;-143.36;nan
39209;BME280;24929;51.982;4.664;2022-10-17T07:43:41;76947.13;;;-143.36;nan
39209;BME280;24929;51.982;4.664;2022-10-17T07:46:07;76951.13;;;-143.36;nan
39209;BME280;24929;51.982;4.664;2022-10-17T07:48:33;76973.19;;;-143.36;nan
39209;BME280;24929;51.982;4.664;2022-10-17T07:51:05;76959.16;;;-143.36;nan
39209;BME280;24929;51.982;4.664;2022-10-17T07:53:34;76963.16;;;-143.36;nan
39209;BME280;24929;51.982;4.664;2022-10-17T07:56:03;76963.16;;;-143.36;nan
39209;BME280;24929;51.982;4.664;2022-10-17T07:58:28;76955.13;;;-143.36;nan
39209;BME280;24929;51.982;4.664;2022-10-17T08:00:59;76941.09;;;-143.36;nan
39209;BME280;24929;51.982;4.664;2022-10-17T08:03:25;76941.09;;;-143.36;nan
39209;BME280;24929;51.982;4.664;2022-10-17T08:05:50;76953.13;;;-143.36;nan
39209;BME280;24929;51.982;4.664;2022-10-17T08:08:16;76943.09;;;-143.36;nan
39209;BME280;24929;51.982;4.664;2022-10-17T08:10:41;76949.13;;;-143.36;nan
39209;BME280;24929;51.982;4.664;2022-10-17T08:13:06;76961.16;;;-143.36;nan
39209;BME280;24929;51.982;4.664;2022-10-17T08:15:32;76945.09;;;-143.36;nan
39209;BME280;24929;51.982;4.664;2022-10-17T08:17:57;76941.09;;;-143.36;nan
39209;BME280;24929;51.982;4.664;2022-10-17T08:20:23;76959.16;;;-143.36;nan
39209;BME280;24929;51.982;4.664;2022-10-17T08:22:53;76931.06;;;-143.36;nan
39209;BME280;24929;51.982;4.664;2022-10-17T08:25:18;76939.09;;;-143.36;nan
39209;BME280;24929;51.982;4.664;2022-10-17T08:27:44;76933.06;;;-143.36;nan
39209;BME280;24929;51.982;4.664;2022-10-17T08:30:10;76931.06;;;-143.36;nan
39209;BME280;24929;51.982;4.664;2022-10-17T08:32:35;76923.03;;;-143.36;nan
39209;BME280;24929;51.982;4.664;2022-10-17T08:35:01;76904.97;;;-143.36;nan
39209;BME280;24929;51.982;4.664;2022-10-17T08:37:26;76892.94;;;-143.36;nan
39209;BME280;24929;51.982;4.664;2022-10-17T08:39:51;76890.91;;;-143.36;nan
39209;BME280;24929;51.982;4.664;2022-10-17T08:45:20;76820.69;;;-143.36;nan
39209;BME280;24929;51.982;4.664;2022-10-17T08:47:52;76842.75;;;-143.36;nan
39209;BME280;24929;51.982;4.664;2022-10-17T08:50:37;76814.66;;;-143.36;nan
39209;BME280;24929;51.982;4.664;2022-10-17T08:55:50;76860.81;;;-143.36;nan
39209;BME280;24929;51.982;4.664;2022-10-17T08:58:28;76856.81;;;-143.36;nan
39209;BME280;24929;51.982;4.664;2022-10-17T09:03:48;76870.84;;;-143.36;nan
39209;BME280;24929;51.982;4.664;2022-10-17T09:06:20;76892.94;;;-143.36;nan
39209;BME280;24929;51.982;4.664;2022-10-17T09:08:52;76900.97;;;-143.36;nan
39209;BME280;24929;51.982;4.664;2022-10-17T09:20:11;76848.78;;;-143.36;nan
39209;BME280;24929;51.982;4.664;2022-10-17T09:23:02;76846.78;;;-143.36;nan
39209;BME280;24929;51.982;4.664;2022-10-17T09:25:38;76862.81;;;-143.36;nan
39209;BME280;24929;51.982;4.664;2022-10-17T09:28:18;76840.75;;;-143.36;nan
39209;BME280;24929;51.982;4.664;2022-10-17T09:30:48;76856.81;;;-143.36;nan
39209;BME280;24929;51.982;4.664;2022-10-17T09:33:18;76862.81;;;-143.36;nan
39209;BME280;24929;51.982;4.664;2022-10-17T09:35:44;76872.84;;;-143.36;nan
39209;BME280;24929;51.982;4.664;2022-10-17T09:38:17;76854.78;;;-143.36;nan
39209;BME280;24929;51.982;4.664;2022-10-17T09:40:43;76872.84;;;-143.36;nan
39209;BME280;24929;51.982;4.664;2022-10-17T09:43:12;76872.84;;;-143.36;nan
39209;BME280;24929;51.982;4.664;2022-10-17T09:45:44;76894.94;;;-143.36;nan
39209;BME280;24929;51.982;4.664;2022-10-17T09:48:35;76908.97;;;-143.36;nan
39209;BME280;24929;51.982;4.664;2022-10-17T09:54:31;76945.09;;;-143.36;nan
39209;BME280;24929;51.982;4.664;2022-10-17T09:57:03;76955.13;;;-143.36;nan
39209;BME280;24929;51.982;4.664;2022-10-17T09:59:38;76953.13;;;-143.36;nan
39209;BME280;24929;51.982;4.664;2022-10-17T10:02:23;76945.09;;;-143.36;nan
39209;BME280;24929;51.982;4.664;2022-10-17T10:04:56;76953.13;;;-143.36;nan
39209;BME280;24929;51.982;4.664;2022-10-17T10:07:23;76979.22;;;-143.36;nan
39209;BME280;24929;51.982;4.664;2022-10-17T10:09:49;76979.22;;;-143.36;nan
39209;BME280;24929;51.982;4.664;2022-10-17T10:15:35;76969.19;;;-143.36;nan
39209;BME280;24929;51.982;4.664;2022-10-17T10:18:06;76979.22;;;-143.36;nan
39209;BME280;24929;51.982;4.664;2022-10-17T10:21:01;76975.22;;;-143.36;nan
39209;BME280;24929;51.982;4.664;2022-10-17T10:23:27;76991.25;;;-143.36;nan
39209;BME280;24929;51.982;4.664;2022-10-17T10:25:56;76975.22;;;-143.36;nan
39209;BME280;24929;51.982;4.664;2022-10-17T10:28:25;76979.22;;;-143.36;nan
39209;BME280;24929;51.982;4.664;2022-10-17T10:30:53;76995.28;;;-143.36;nan
39209;BME280;24929;51.982;4.664;2022-10-17T10:33:25;76981.22;;;-143.36;nan
39209;BME280;24929;51.982;4.664;2022-10-17T10:35:55;77003.31;;;-143.36;nan
39209;BME280;24929;51.982;4.664;2022-10-17T10:38:21;77021.38;;;-143.36;nan
39209;BME280;24929;51.982;4.664;2022-10-17T10:41:02;76995.28;;;-143.36;nan
39209;BME280;24929;51.982;4.664;2022-10-17T10:43:37;77005.31;;;-143.36;nan
39209;BME280;24929;51.982;4.664;2022-10-17T10:46:22;77027.38;;;-143.36;nan
39209;BME280;24929;51.982;4.664;2022-10-17T10:48:53;77029.41;;;-143.36;nan
39209;BME280;24929;51.982;4.664;2022-10-17T10:51:46;77037.44;;;-143.36;nan
39209;BME280;24929;51.982;4.664;2022-10-17T10:54:18;77045.44;;;-143.36;nan
39209;BME280;24929;51.982;4.664;2022-10-17T10:56:46;77069.53;;;-143.36;nan
39209;BME280;24929;51.982;4.664;2022-10-17T10:59:19;77047.47;;;-143.36;nan
39209;BME280;24929;51.982;4.664;2022-10-17T11:01:58;77043.44;;;-143.36;nan
39209;BME280;24929;51.982;4.664;2022-10-17T11:07:45;77039.44;;;-143.36;nan
39209;BME280;24929;51.982;4.664;2022-10-17T11:10:20;77043.44;;;-143.36;nan
39209;BME280;24929;51.982;4.664;2022-10-17T11:12:51;77049.47;;;-143.36;nan
39209;BME280;24929;51.982;4.664;2022-10-17T11:20:47;77073.56;;;-143.36;nan
39209;BME280;24929;51.982;4.664;2022-10-17T11:23:23;77057.50;;;-143.36;nan
39209;BME280;24929;51.982;4.664;2022-10-17T11:25:53;77051.47;;;-143.36;nan
39209;BME280;24929;51.982;4.664;2022-10-17T11:28:22;77041.44;;;-143.36;nan
39209;BME280;24929;51.982;4.664;2022-10-17T11:31:08;77059.50;;;-143.36;nan
39209;BME280;24929;51.982;4.664;2022-10-17T11:36:23;77027.38;;;-143.36;nan
39209;BME280;24929;51.982;4.664;2022-10-17T11:38:57;77017.34;;;-143.36;nan
39209;BME280;24929;51.982;4.664;2022-10-17T11:44:09;77019.38;;;-143.36;nan
39209;BME280;24929;51.982;4.664;2022-10-17T11:46:36;77051.47;;;-143.36;nan
39209;BME280;24929;51.982;4.664;2022-10-17T11:49:12;77033.41;;;-143.36;nan
39209;BME280;24929;51.982;4.664;2022-10-17T11:51:45;77033.41;;;-143.36;nan
39209;BME280;24929;51.982;4.664;2022-10-17T11:54:16;77041.44;;;-143.36;nan
39209;BME280;24929;51.982;4.664;2022-10-17T11:57:25;77025.38;;;-143.36;nan
39209;BME280;24929;51.982;4.664;2022-10-17T12:03:17;77047.47;;;-143.36;nan
39209;BME280;24929;51.982;4.664;2022-10-17T12:09:09;77011.34;;;-143.36;nan
39209;BME280;24929;51.982;4.664;2022-10-17T12:11:52;77017.34;;;-143.36;nan
39209;BME280;24929;51.982;4.664;2022-10-17T12:14:41;77019.38;;;-143.36;nan
39209;BME280;24929;51.982;4.664;2022-10-17T12:17:32;77011.34;;;-143.36;nan
39209;BME280;24929;51.982;4.664;2022-10-17T12:22:49;77015.34;;;-143.36;nan
39209;BME280;24929;51.982;4.664;2022-10-17T12:25:26;77009.31;;;-143.36;nan
39209;BME280;24929;51.982;4.664;2022-10-17T12:30:31;77013.34;;;-143.36;nan
39209;BME280;24929;51.982;4.664;2022-10-17T12:33:14;76999.28;;;-143.36;nan
39209;BME280;24929;51.982;4.664;2022-10-17T12:35:46;77021.38;;;-143.36;nan
39209;BME280;24929;51.982;4.664;2022-10-17T12:38:24;77009.31;;;-143.36;nan
39209;BME280;24929;51.982;4.664;2022-10-17T12:40:58;77003.31;;;-143.36;nan
39209;BME280;24929;51.982;4.664;2022-10-17T12:45:56;76989.25;;;-143.36;nan
39209;BME280;24929;51.982;4.664;2022-10-17T12:51:12;76971.19;;;-143.36;nan
39209;BME280;24929;51.982;4.664;2022-10-17T12:56:37;76973.19;;;-143.36;nan
39209;BME280;24929;51.982;4.664;2022-10-17T12:59:25;76975.22;;;-143.36;nan
39209;BME280;24929;51.982;4.664;2022-10-17T13:01:55;77013.34;;;-143.36;nan
39209;BME280;24929;51.982;4.664;2022-10-17T13:04:22;77033.41;;;-143.36;nan
39209;BME280;24929;51.982;4.664;2022-10-17T13:06:51;77017.34;;;-143.36;nan
39209;BME280;24929;51.982;4.664;2022-10-17T13:09:25;77019.38;;;-143.36;nan
39209;BME280;24929;51.982;4.664;2022-10-17T13:11:52;77033.41;;;-143.36;nan
39209;BME280;24929;51.982;4.664;2022-10-17T13:14:20;77043.44;;;-143.36;nan
39209;BME280;24929;51.982;4.664;2022-10-17T13:17:04;77047.47;;;-143.36;nan
39209;BME280;24929;51.982;4.664;2022-10-17T13:19:41;77049.47;;;-143.36;nan
39209;BME280;24929;51.982;4.664;2022-10-17T13:22:15;77073.56;;;-143.36;nan
39209;BME280;24929;51.982;4.664;2022-10-17T13:24:41;77085.59;;;-143.36;nan
39209;BME280;24929;51.982;4.664;2022-10-17T13:29:52;77083.59;;;-143.36;nan
39209;BME280;24929;51.982;4.664;2022-10-17T13:32:20;77083.59;;;-143.36;nan
39209;BME280;24929;51.982;4.664;2022-10-17T13:34:45;77077.56;;;-143.36;nan
39209;BME280;24929;51.982;4.664;2022-10-17T13:37:13;77063.50;;;-143.36;nan
39209;BME280;24929;51.982;4.664;2022-10-17T13:39:41;77041.44;;;-143.36;nan
39209;BME280;24929;51.982;4.664;2022-10-17T13:42:37;77021.38;;;-143.36;nan
39209;BME280;24929;51.982;4.664;2022-10-17T13:45:04;77041.44;;;-143.36;nan
39209;BME280;24929;51.982;4.664;2022-10-17T13:47:38;77017.34;;;-143.36;nan
39209;BME280;24929;51.982;4.664;2022-10-17T13:50:04;77023.38;;;-143.36;nan
39209;BME280;24929;51.982;4.664;2022-10-17T13:52:29;77031.41;;;-143.36;nan
39209;BME280;24929;51.982;4.664;2022-10-17T13:55:05;76999.28;;;-143.36;nan
39209;BME280;24929;51.982;4.664;2022-10-17T13:57:32;77023.38;;;-143.36;nan
39209;BME280;24929;51.982;4.664;2022-10-17T14:00:00;76997.28;;;-143.36;nan
39209;BME280;24929;51.982;4.664;2022-10-17T14:02:31;76981.22;;;-143.36;nan
39209;BME280;24929;51.982;4.664;2022-10-17T14:05:13;76981.22;;;-143.36;nan
39209;BME280;24929;51.982;4.664;2022-10-17T14:10:21;76973.19;;;-143.36;nan
39209;BME280;24929;51.982;4.664;2022-10-17T14:12:47;77001.31;;;-143.36;nan
39209;BME280;24929;51.982;4.664;2022-10-17T14:15:14;76961.16;;;-143.36;nan
39209;BME280;24929;51.982;4.664;2022-10-17T14:17:41;76939.09;;;-143.36;nan
39209;BME280;24929;51.982;4.664;2022-10-17T14:20:19;76921.03;;;-143.36;nan
39209;BME280;24929;51.982;4.664;2022-10-17T14:22:45;76993.28;;;-143.36;nan
39209;BME280;24929;51.982;4.664;2022-10-17T14:25:31;76961.16;;;-143.36;nan
39209;BME280;24929;51.982;4.664;2022-10-17T14:30:46;77033.41;;;-143.36;nan
39209;BME280;24929;51.982;4.664;2022-10-17T14:33:32;77029.41;;;-143.36;nan
39209;BME280;24929;51.982;4.664;2022-10-17T14:36:00;77039.44;;;-143.36;nan
39209;BME280;24929;51.982;4.664;2022-10-17T14:38:27;77065.53;;;-143.36;nan
39209;BME280;24929;51.982;4.664;2022-10-17T14:41:12;77059.50;;;-143.36;nan
39209;BME280;24929;51.982;4.664;2022-10-17T14:43:39;77109.69;;;-143.36;nan
39209;BME280;24929;51.982;4.664;2022-10-17T14:46:05;77091.63;;;-143.36;nan
39209;BME280;24929;51.982;4.664;2022-10-17T14:48:31;77087.59;;;-143.36;nan
39209;BME280;24929;51.982;4.664;2022-10-17T14:51:07;77079.56;;;-143.36;nan
39209;BME280;24929;51.982;4.664;2022-10-17T14:53:33;77105.66;;;-143.36;nan
39209;BME280;24929;51.982;4.664;2022-10-17T14:56:00;77083.59;;;-143.36;nan
39209;BME280;24929;51.982;4.664;2022-10-17T14:58:28;77073.56;;;-143.36;nan
39209;BME280;24929;51.982;4.664;2022-10-17T15:00:55;77081.59;;;-143.36;nan
39209;BME280;24929;51.982;4.664;2022-10-17T15:03:21;77087.59;;;-143.36;nan